sensor_id;sensor_type;location;lat;lon;timestamp;pressure;altitude;pressure_sealevel;temperature;humidity
68456;BME280;55437;55.046;38.838;2023-04-05T00:00:12;100114.00;;;8.04;65.55
68456;BME280;55437;55.046;38.838;2023-04-05T00:02:43;100118.31;;;8.00;65.25
68456;BME280;55437;55.046;38.838;2023-04-05T00:05:09;100121.75;;;7.97;65.71
68456;BME280;55437;55.046;38.838;2023-04-05T00:10:27;100117.59;;;7.92;66.02
68456;BME280;55437;55.046;38.838;2023-04-05T00:12:52;100115.09;;;7.87;66.02
68456;BME280;55437;55.046;38.838;2023-04-05T00:15:18;100118.50;;;7.88;66.05
68456;BME280;55437;55.046;38.838;2023-04-05T00:17:44;100115.97;;;7.86;66.16
68456;BME280;55437;55.046;38.838;2023-04-05T00:23:13;100117.81;;;7.80;66.99
68456;BME280;55437;55.046;38.838;2023-04-05T00:25:42;100116.06;;;7.82;67.12
68456;BME280;55437;55.046;38.838;2023-04-05T00:28:07;100110.16;;;7.78;67.36
68456;BME280;55437;55.046;38.838;2023-04-05T00:30:33;100114.41;;;7.79;67.17
68456;BME280;55437;55.046;38.838;2023-04-05T00:33:00;100110.97;;;7.82;67.27
68456;BME280;55437;55.046;38.838;2023-04-05T00:35:27;100108.31;;;7.85;67.55
68456;BME280;55437;55.046;38.838;2023-04-05T00:37:55;100121.06;;;7.88;67.45
68456;BME280;55437;55.046;38.838;2023-04-05T00:40:23;100109.16;;;7.87;67.24
68456;BME280;55437;55.046;38.838;2023-04-05T00:42:49;100116.84;;;7.85;67.46
68456;BME280;55437;55.046;38.838;2023-04-05T00:45:15;100115.09;;;7.87;67.45
68456;BME280;55437;55.046;38.838;2023-04-05T00:47:41;100114.28;;;7.85;67.37
68456;BME280;55437;55.046;38.838;2023-04-05T00:50:08;100118.63;;;7.82;67.22
68456;BME280;55437;55.046;38.838;2023-04-05T00:52:35;100120.38;;;7.80;67.40
68456;BME280;55437;55.046;38.838;2023-04-05T00:55:03;100114.41;;;7.78;67.47
68456;BME280;55437;55.046;38.838;2023-04-05T00:57:35;100115.38;;;7.72;67.64
68456;BME280;55437;55.046;38.838;2023-04-05T01:00:05;100117.03;;;7.73;67.54
68456;BME280;55437;55.046;38.838;2023-04-05T01:02:40;100123.84;;;7.74;67.53
68456;BME280;55437;55.046;38.838;2023-04-05T01:10:50;100123.09;;;7.68;67.58
68456;BME280;55437;55.046;38.838;2023-04-05T01:13:20;100125.69;;;7.66;67.72
68456;BME280;55437;55.046;38.838;2023-04-05T01:15:45;100117.22;;;7.63;68.07
68456;BME280;55437;55.046;38.838;2023-04-05T01:18:12;100119.75;;;7.64;67.78
68456;BME280;55437;55.046;38.838;2023-04-05T01:20:45;100128.25;;;7.66;68.18
68456;BME280;55437;55.046;38.838;2023-04-05T01:23:43;100127.41;;;7.64;67.86
68456;BME280;55437;55.046;38.838;2023-04-05T01:26:33;100125.84;;;7.57;68.77
68456;BME280;55437;55.046;38.838;2023-04-05T01:35:09;100132.66;;;7.55;69.36
68456;BME280;55437;55.046;38.838;2023-04-05T01:37:42;100129.28;;;7.53;69.37
68456;BME280;55437;55.046;38.838;2023-04-05T01:40:11;100123.38;;;7.49;69.55
68456;BME280;55437;55.046;38.838;2023-04-05T01:42:37;100131.03;;;7.49;69.34
68456;BME280;55437;55.046;38.838;2023-04-05T01:45:03;100131.09;;;7.48;69.58
68456;BME280;55437;55.046;38.838;2023-04-05T01:47:31;100132.81;;;7.46;69.63
68456;BME280;55437;55.046;38.838;2023-04-05T01:49:58;100131.94;;;7.48;69.51
68456;BME280;55437;55.046;38.838;2023-04-05T01:52:25;100137.94;;;7.46;69.47
68456;BME280;55437;55.046;38.838;2023-04-05T01:54:55;100135.44;;;7.41;69.91
68456;BME280;55437;55.046;38.838;2023-04-05T01:57:22;100140.50;;;7.44;69.89
68456;BME280;55437;55.046;38.838;2023-04-05T01:59:48;100146.44;;;7.45;69.55
68456;BME280;55437;55.046;38.838;2023-04-05T02:02:14;100139.63;;;7.45;69.73
68456;BME280;55437;55.046;38.838;2023-04-05T02:04:43;100146.44;;;7.46;69.46
68456;BME280;55437;55.046;38.838;2023-04-05T02:07:09;100143.03;;;7.46;69.44
68456;BME280;55437;55.046;38.838;2023-04-05T02:09:39;100143.09;;;7.41;70.00
68456;BME280;55437;55.046;38.838;2023-04-05T02:12:05;100150.78;;;7.40;69.71
68456;BME280;55437;55.046;38.838;2023-04-05T02:14:35;100149.16;;;7.36;69.91
68456;BME280;55437;55.046;38.838;2023-04-05T02:17:25;100157.66;;;7.36;69.76
68456;BME280;55437;55.046;38.838;2023-04-05T02:20:00;100152.63;;;7.30;70.27
68456;BME280;55437;55.046;38.838;2023-04-05T02:22:33;100155.22;;;7.26;70.22
68456;BME280;55437;55.046;38.838;2023-04-05T02:25:48;100156.91;;;7.27;70.20
68456;BME280;55437;55.046;38.838;2023-04-05T02:28:21;100160.31;;;7.26;70.11
68456;BME280;55437;55.046;38.838;2023-04-05T02:30:56;100157.00;;;7.22;70.57
68456;BME280;55437;55.046;38.838;2023-04-05T02:33:41;100162.94;;;7.22;70.44
68456;BME280;55437;55.046;38.838;2023-04-05T02:36:35;100158.69;;;7.21;70.60
68456;BME280;55437;55.046;38.838;2023-04-05T02:39:02;100155.28;;;7.22;70.29
68456;BME280;55437;55.046;38.838;2023-04-05T02:41:32;100159.47;;;7.25;70.60
68456;BME280;55437;55.046;38.838;2023-04-05T02:44:24;100154.41;;;7.23;70.90
68456;BME280;55437;55.046;38.838;2023-04-05T02:46:52;100157.81;;;7.24;70.70
68456;BME280;55437;55.046;38.838;2023-04-05T02:49:24;100159.44;;;7.28;70.40
68456;BME280;55437;55.046;38.838;2023-04-05T02:51:51;100160.38;;;7.22;70.55
68456;BME280;55437;55.046;38.838;2023-04-05T02:54:17;100155.31;;;7.19;70.48
68456;BME280;55437;55.046;38.838;2023-04-05T02:56:43;100160.38;;;7.22;70.89
68456;BME280;55437;55.046;38.838;2023-04-05T02:59:14;100154.38;;;7.25;70.67
68456;BME280;55437;55.046;38.838;2023-04-05T03:01:42;100162.81;;;7.30;70.64
68456;BME280;55437;55.046;38.838;2023-04-05T03:04:15;100167.88;;;7.35;70.70
68456;BME280;55437;55.046;38.838;2023-04-05T03:06:42;100163.53;;;7.40;70.55
68456;BME280;55437;55.046;38.838;2023-04-05T03:09:11;100161.78;;;7.45;70.40
68456;BME280;55437;55.046;38.838;2023-04-05T03:11:37;100168.47;;;7.52;70.12
68456;BME280;55437;55.046;38.838;2023-04-05T03:14:03;100165.75;;;7.64;69.62
68456;BME280;55437;55.046;38.838;2023-04-05T03:16:46;100165.56;;;7.76;69.35
68456;BME280;55437;55.046;38.838;2023-04-05T03:19:23;100167.97;;;7.85;68.90
68456;BME280;55437;55.046;38.838;2023-04-05T03:21:58;100178.06;;;7.96;68.48
68456;BME280;55437;55.046;38.838;2023-04-05T03:24:35;100170.09;;;8.13;68.47
68456;BME280;55437;55.046;38.838;2023-04-05T03:27:03;100169.00;;;8.27;68.11
68456;BME280;55437;55.046;38.838;2023-04-05T03:29:36;100183.28;;;8.41;67.56
68456;BME280;55437;55.046;38.838;2023-04-05T03:32:10;100186.50;;;8.52;67.12
68456;BME280;55437;55.046;38.838;2023-04-05T03:34:41;100187.09;;;8.66;67.04
68456;BME280;55437;55.046;38.838;2023-04-05T03:37:08;100189.31;;;8.84;66.78
68456;BME280;55437;55.046;38.838;2023-04-05T03:39:46;100193.06;;;9.10;65.74
68456;BME280;55437;55.046;38.838;2023-04-05T03:42:15;100194.25;;;9.35;65.07
68456;BME280;55437;55.046;38.838;2023-04-05T03:44:43;100202.59;;;9.43;65.32
68456;BME280;55437;55.046;38.838;2023-04-05T03:47:09;100193.19;;;9.44;64.90
68456;BME280;55437;55.046;38.838;2023-04-05T03:49:37;100197.41;;;9.48;64.56
68456;BME280;55437;55.046;38.838;2023-04-05T03:52:03;100201.41;;;9.59;64.51
68456;BME280;55437;55.046;38.838;2023-04-05T03:54:35;100201.06;;;9.74;64.04
68456;BME280;55437;55.046;38.838;2023-04-05T03:57:01;100204.94;;;9.91;63.49
68456;BME280;55437;55.046;38.838;2023-04-05T03:59:30;100208.75;;;10.11;62.98
68456;BME280;55437;55.046;38.838;2023-04-05T04:01:57;100214.75;;;10.10;62.97
68456;BME280;55437;55.046;38.838;2023-04-05T04:04:24;100210.41;;;10.14;63.06
68456;BME280;55437;55.046;38.838;2023-04-05T04:06:51;100214.59;;;10.17;63.04
68456;BME280;55437;55.046;38.838;2023-04-05T04:09:21;100206.31;;;10.41;62.36
68456;BME280;55437;55.046;38.838;2023-04-05T04:11:47;100215.06;;;10.68;61.96
68456;BME280;55437;55.046;38.838;2023-04-05T04:14:22;100209.47;;;10.85;61.50
68456;BME280;55437;55.046;38.838;2023-04-05T04:17:36;100208.50;;;10.89;61.26
68456;BME280;55437;55.046;38.838;2023-04-05T04:20:33;100211.31;;;11.10;60.72
68456;BME280;55437;55.046;38.838;2023-04-05T04:23:13;100220.22;;;11.28;60.44
68456;BME280;55437;55.046;38.838;2023-04-05T04:26:03;100220.44;;;11.50;59.94
68456;BME280;55437;55.046;38.838;2023-04-05T04:29:05;100216.41;;;11.41;59.77
68456;BME280;55437;55.046;38.838;2023-04-05T04:31:57;100222.03;;;11.54;59.44
68456;BME280;55437;55.046;38.838;2023-04-05T04:34:45;100223.00;;;11.50;59.31
68456;BME280;55437;55.046;38.838;2023-04-05T04:37:35;100227.28;;;11.51;59.07
68456;BME280;55437;55.046;38.838;2023-04-05T04:40:36;100229.19;;;11.72;58.70
68456;BME280;55437;55.046;38.838;2023-04-05T04:43:23;100238.53;;;12.04;58.33
68456;BME280;55437;55.046;38.838;2023-04-05T04:46:05;100237.50;;;12.10;58.21
68456;BME280;55437;55.046;38.838;2023-04-05T04:48:50;100235.81;;;12.35;57.05
68456;BME280;55437;55.046;38.838;2023-04-05T04:51:37;100236.06;;;12.79;56.37
68456;BME280;55437;55.046;38.838;2023-04-05T04:54:07;100223.97;;;13.04;55.76
68456;BME280;55437;55.046;38.838;2023-04-05T04:56:38;100230.41;;;13.17;54.92
68456;BME280;55437;55.046;38.838;2023-04-05T04:59:06;100232.41;;;13.09;54.64
68456;BME280;55437;55.046;38.838;2023-04-05T05:01:32;100235.50;;;12.94;54.95
68456;BME280;55437;55.046;38.838;2023-04-05T05:03:59;100230.53;;;12.89;54.98
68456;BME280;55437;55.046;38.838;2023-04-05T05:06:34;100226.44;;;12.84;54.83
68456;BME280;55437;55.046;38.838;2023-04-05T05:09:00;100234.03;;;13.12;54.53
68456;BME280;55437;55.046;38.838;2023-04-05T05:11:28;100233.97;;;13.15;54.24
68456;BME280;55437;55.046;38.838;2023-04-05T05:13:57;100234.63;;;13.20;54.43
68456;BME280;55437;55.046;38.838;2023-04-05T05:16:47;100240.72;;;13.17;53.93
68456;BME280;55437;55.046;38.838;2023-04-05T05:19:13;100243.25;;;13.19;53.74
68456;BME280;55437;55.046;38.838;2023-04-05T05:21:44;100251.44;;;13.30;53.38
68456;BME280;55437;55.046;38.838;2023-04-05T05:24:11;100257.81;;;13.43;53.11
68456;BME280;55437;55.046;38.838;2023-04-05T05:26:38;100261.13;;;13.70;52.77
68456;BME280;55437;55.046;38.838;2023-04-05T05:29:08;100267.00;;;14.17;51.99
68456;BME280;55437;55.046;38.838;2023-04-05T05:31:38;100257.09;;;14.50;51.39
68456;BME280;55437;55.046;38.838;2023-04-05T05:34:05;100252.03;;;14.88;50.48
68456;BME280;55437;55.046;38.838;2023-04-05T05:36:31;100258.50;;;15.37;49.44
68456;BME280;55437;55.046;38.838;2023-04-05T05:39:03;100264.94;;;16.03;48.36
68456;BME280;55437;55.046;38.838;2023-04-05T05:41:33;100255.50;;;16.19;47.20
68456;BME280;55437;55.046;38.838;2023-04-05T05:43:59;100270.72;;;16.44;46.87
68456;BME280;55437;55.046;38.838;2023-04-05T05:46:26;100272.50;;;16.78;46.22
68456;BME280;55437;55.046;38.838;2023-04-05T05:48:53;100267.22;;;17.30;45.32
68456;BME280;55437;55.046;38.838;2023-04-05T05:51:19;100272.16;;;17.83;44.18
68456;BME280;55437;55.046;38.838;2023-04-05T05:56:33;100271.69;;;18.52;42.97
68456;BME280;55437;55.046;38.838;2023-04-05T05:59:04;100275.84;;;18.41;42.53
68456;BME280;55437;55.046;38.838;2023-04-05T06:01:31;100271.78;;;18.66;41.97
68456;BME280;55437;55.046;38.838;2023-04-05T06:03:59;100277.41;;;19.03;41.38
68456;BME280;55437;55.046;38.838;2023-04-05T06:06:25;100279.28;;;19.58;40.34
68456;BME280;55437;55.046;38.838;2023-04-05T06:08:51;100275.88;;;19.84;39.67
68456;BME280;55437;55.046;38.838;2023-04-05T06:11:36;100284.41;;;20.00;38.68
68456;BME280;55437;55.046;38.838;2023-04-05T06:14:30;100283.16;;;19.79;39.31
68456;BME280;55437;55.046;38.838;2023-04-05T06:16:56;100282.59;;;19.74;39.34
68456;BME280;55437;55.046;38.838;2023-04-05T06:19:23;100276.84;;;19.40;39.54
68456;BME280;55437;55.046;38.838;2023-04-05T06:22:09;100279.72;;;19.78;38.76
68456;BME280;55437;55.046;38.838;2023-04-05T06:24:35;100284.88;;;19.93;38.81
68456;BME280;55437;55.046;38.838;2023-04-05T06:27:01;100276.88;;;20.23;38.27
68456;BME280;55437;55.046;38.838;2023-04-05T06:29:27;100272.69;;;20.47;37.92
68456;BME280;55437;55.046;38.838;2023-04-05T06:31:53;100285.31;;;20.53;37.81
68456;BME280;55437;55.046;38.838;2023-04-05T06:34:19;100286.28;;;20.52;37.79
68456;BME280;55437;55.046;38.838;2023-04-05T06:36:46;100288.66;;;20.55;37.58
68456;BME280;55437;55.046;38.838;2023-04-05T06:39:13;100287.88;;;20.80;37.19
68456;BME280;55437;55.046;38.838;2023-04-05T06:41:39;100287.25;;;20.89;37.04
68456;BME280;55437;55.046;38.838;2023-04-05T06:44:08;100281.63;;;21.08;36.69
68456;BME280;55437;55.046;38.838;2023-04-05T06:46:35;100279.44;;;21.27;36.46
68456;BME280;55437;55.046;38.838;2023-04-05T06:49:03;100289.75;;;20.91;36.63
68456;BME280;55437;55.046;38.838;2023-04-05T06:51:30;100277.97;;;20.85;36.79
68456;BME280;55437;55.046;38.838;2023-04-05T06:53:56;100280.91;;;20.93;36.62
68456;BME280;55437;55.046;38.838;2023-04-05T06:56:22;100280.50;;;20.99;36.46
68456;BME280;55437;55.046;38.838;2023-04-05T06:58:48;100280.88;;;20.28;37.42
68456;BME280;55437;55.046;38.838;2023-04-05T07:01:15;100286.13;;;20.41;37.13
68456;BME280;55437;55.046;38.838;2023-04-05T07:03:42;100276.97;;;20.21;37.20
68456;BME280;55437;55.046;38.838;2023-04-05T07:06:08;100277.66;;;20.10;37.22
68456;BME280;55437;55.046;38.838;2023-04-05T07:08:34;100269.59;;;20.28;36.74
68456;BME280;55437;55.046;38.838;2023-04-05T07:11:00;100277.00;;;20.61;36.67
68456;BME280;55437;55.046;38.838;2023-04-05T07:13:26;100276.09;;;21.12;35.90
68456;BME280;55437;55.046;38.838;2023-04-05T07:15:59;100283.59;;;21.55;35.40
68456;BME280;55437;55.046;38.838;2023-04-05T07:18:55;100282.56;;;21.45;35.30
68456;BME280;55437;55.046;38.838;2023-04-05T10:15:19;100242.59;;;17.21;38.37
68456;BME280;55437;55.046;38.838;2023-04-05T10:17:58;100240.19;;;17.34;38.25
68456;BME280;55437;55.046;38.838;2023-04-05T10:20:29;100236.59;;;17.37;38.32
68456;BME280;55437;55.046;38.838;2023-04-05T10:23:11;100232.06;;;17.24;38.26
68456;BME280;55437;55.046;38.838;2023-04-05T10:28:33;100236.59;;;17.37;37.86
68456;BME280;55437;55.046;38.838;2023-04-05T10:34:59;100227.19;;;17.34;37.29
68456;BME280;55437;55.046;38.838;2023-04-05T10:37:31;100226.03;;;17.40;37.69
68456;BME280;55437;55.046;38.838;2023-04-05T10:40:02;100227.69;;;17.41;37.69
68456;BME280;55437;55.046;38.838;2023-04-05T10:42:39;100223.03;;;17.47;37.67
68456;BME280;55437;55.046;38.838;2023-04-05T10:45:31;100235.16;;;17.47;37.65
68456;BME280;55437;55.046;38.838;2023-04-05T10:48:15;100231.38;;;17.52;37.60
68456;BME280;55437;55.046;38.838;2023-04-05T10:50:46;100220.59;;;17.44;37.53
68456;BME280;55437;55.046;38.838;2023-04-05T10:53:37;100225.72;;;17.46;37.74
68456;BME280;55437;55.046;38.838;2023-04-05T10:56:05;100217.75;;;17.49;37.30
68456;BME280;55437;55.046;38.838;2023-04-05T10:58:33;100222.03;;;17.50;37.56
68456;BME280;55437;55.046;38.838;2023-04-05T11:01:01;100221.50;;;17.43;37.36
68456;BME280;55437;55.046;38.838;2023-04-05T11:03:50;100218.06;;;17.43;37.40
68456;BME280;55437;55.046;38.838;2023-04-05T11:06:25;100212.31;;;17.38;37.64
68456;BME280;55437;55.046;38.838;2023-04-05T11:09:14;100213.53;;;17.31;37.93
68456;BME280;55437;55.046;38.838;2023-04-05T11:11:48;100209.03;;;17.34;37.89
68456;BME280;55437;55.046;38.838;2023-04-05T11:14:22;100208.94;;;17.51;37.77
68456;BME280;55437;55.046;38.838;2023-04-05T11:17:27;100206.88;;;17.58;37.91
68456;BME280;55437;55.046;38.838;2023-04-05T11:20:10;100210.28;;;17.43;38.15
68456;BME280;55437;55.046;38.838;2023-04-05T11:22:36;100211.47;;;17.37;38.17
68456;BME280;55437;55.046;38.838;2023-04-05T11:25:21;100213.88;;;17.24;38.39
68456;BME280;55437;55.046;38.838;2023-04-05T11:27:59;100207.59;;;17.28;38.31
68456;BME280;55437;55.046;38.838;2023-04-05T11:30:48;100209.94;;;17.33;38.35
68456;BME280;55437;55.046;38.838;2023-04-05T11:36:33;100211.41;;;17.39;38.31
68456;BME280;55437;55.046;38.838;2023-04-05T11:39:32;100212.69;;;17.30;38.51
68456;BME280;55437;55.046;38.838;2023-04-05T11:42:11;100218.50;;;17.35;38.56
68456;BME280;55437;55.046;38.838;2023-04-05T11:47:35;100219.69;;;17.45;38.29
68456;BME280;55437;55.046;38.838;2023-04-05T11:50:20;100217.06;;;17.29;38.37
68456;BME280;55437;55.046;38.838;2023-04-05T11:53:16;100210.25;;;17.11;38.84
68456;BME280;55437;55.046;38.838;2023-04-05T11:56:10;100208.06;;;17.04;38.82
68456;BME280;55437;55.046;38.838;2023-04-05T11:58:59;100208.47;;;16.96;38.95
68456;BME280;55437;55.046;38.838;2023-04-05T12:02:06;100204.63;;;17.03;38.75
68456;BME280;55437;55.046;38.838;2023-04-05T12:04:34;100195.91;;;16.88;39.08
68456;BME280;55437;55.046;38.838;2023-04-05T12:07:27;100199.75;;;16.97;38.65
68456;BME280;55437;55.046;38.838;2023-04-05T12:10:22;100200.00;;;16.92;39.22
68456;BME280;55437;55.046;38.838;2023-04-05T12:12:48;100199.00;;;16.95;39.20
68456;BME280;55437;55.046;38.838;2023-04-05T12:15:42;100204.19;;;16.95;39.17
68456;BME280;55437;55.046;38.838;2023-04-05T12:18:19;100195.06;;;16.88;39.64
68456;BME280;55437;55.046;38.838;2023-04-05T12:20:49;100200.00;;;16.92;39.15
68456;BME280;55437;55.046;38.838;2023-04-05T12:23:35;100198.81;;;16.82;39.50
68456;BME280;55437;55.046;38.838;2023-04-05T12:26:51;100191.09;;;16.81;39.38
68456;BME280;55437;55.046;38.838;2023-04-05T12:29:17;100189.69;;;16.91;39.55
68456;BME280;55437;55.046;38.838;2023-04-05T12:31:45;100198.00;;;16.98;39.38
68456;BME280;55437;55.046;38.838;2023-04-05T12:34:22;100197.03;;;17.00;39.25
68456;BME280;55437;55.046;38.838;2023-04-05T12:36:52;100200.75;;;16.95;39.28
68456;BME280;55437;55.046;38.838;2023-04-05T12:39:20;100205.25;;;16.91;39.07
68456;BME280;55437;55.046;38.838;2023-04-05T12:42:05;100201.81;;;16.90;38.96
68456;BME280;55437;55.046;38.838;2023-04-05T12:45:01;100194.72;;;16.94;39.21
68456;BME280;55437;55.046;38.838;2023-04-05T12:47:27;100197.31;;;16.94;38.91
68456;BME280;55437;55.046;38.838;2023-04-05T12:53:06;100193.66;;;16.98;38.71
68456;BME280;55437;55.046;38.838;2023-04-05T12:55:41;100204.41;;;16.90;38.50
68456;BME280;55437;55.046;38.838;2023-04-05T12:58:07;100197.97;;;16.82;38.86
68456;BME280;55437;55.046;38.838;2023-04-05T13:00:36;100192.78;;;16.82;38.82
68456;BME280;55437;55.046;38.838;2023-04-05T13:03:02;100197.31;;;16.78;38.89
68456;BME280;55437;55.046;38.838;2023-04-05T13:05:30;100194.25;;;16.70;38.86
68456;BME280;55437;55.046;38.838;2023-04-05T13:07:58;100192.91;;;16.63;38.94
68456;BME280;55437;55.046;38.838;2023-04-05T13:10:24;100195.25;;;16.68;39.28
68456;BME280;55437;55.046;38.838;2023-04-05T13:12:50;100203.00;;;16.68;39.25
68456;BME280;55437;55.046;38.838;2023-04-05T13:15:17;100194.78;;;16.77;39.16
68456;BME280;55437;55.046;38.838;2023-04-05T13:17:44;100196.13;;;16.84;38.94
68456;BME280;55437;55.046;38.838;2023-04-05T13:23:17;100203.56;;;16.74;38.91
68456;BME280;55437;55.046;38.838;2023-04-05T13:26:08;100194.66;;;16.63;39.22
68456;BME280;55437;55.046;38.838;2023-04-05T13:28:34;100192.56;;;16.69;39.18
68456;BME280;55437;55.046;38.838;2023-04-05T13:31:02;100196.06;;;16.68;39.22
68456;BME280;55437;55.046;38.838;2023-04-05T13:33:32;100196.34;;;16.64;39.18
68456;BME280;55437;55.046;38.838;2023-04-05T13:35:58;100192.19;;;16.60;39.35
68456;BME280;55437;55.046;38.838;2023-04-05T13:38:25;100201.72;;;16.59;39.35
68456;BME280;55437;55.046;38.838;2023-04-05T13:40:55;100191.25;;;16.61;39.22
68456;BME280;55437;55.046;38.838;2023-04-05T13:43:21;100191.25;;;16.61;39.08
68456;BME280;55437;55.046;38.838;2023-04-05T13:45:47;100201.78;;;16.57;38.97
68456;BME280;55437;55.046;38.838;2023-04-05T13:48:14;100194.69;;;16.61;39.04
68456;BME280;55437;55.046;38.838;2023-04-05T13:50:40;100198.28;;;16.58;39.02
68456;BME280;55437;55.046;38.838;2023-04-05T13:53:07;100200.59;;;16.65;39.14
68456;BME280;55437;55.046;38.838;2023-04-05T13:55:33;100201.63;;;16.61;38.98
68456;BME280;55437;55.046;38.838;2023-04-05T13:57:59;100198.69;;;16.51;38.95
68456;BME280;55437;55.046;38.838;2023-04-05T14:00:25;100212.91;;;16.42;39.11
68456;BME280;55437;55.046;38.838;2023-04-05T14:02:51;100201.41;;;16.31;39.31
68456;BME280;55437;55.046;38.838;2023-04-05T14:05:17;100203.47;;;16.24;39.26
68456;BME280;55437;55.046;38.838;2023-04-05T14:08:33;100200.81;;;16.26;39.30
68456;BME280;55437;55.046;38.838;2023-04-05T14:12:14;100208.13;;;16.17;39.67
68456;BME280;55437;55.046;38.838;2023-04-05T14:14:59;100207.38;;;16.15;39.40
68456;BME280;55437;55.046;38.838;2023-04-05T14:20:44;100211.16;;;16.08;39.68
68456;BME280;55437;55.046;38.838;2023-04-05T14:23:10;100207.72;;;16.08;39.73
68456;BME280;55437;55.046;38.838;2023-04-05T14:25:35;100211.75;;;15.96;39.77
68456;BME280;55437;55.046;38.838;2023-04-05T14:28:01;100217.31;;;15.89;39.89
68456;BME280;55437;55.046;38.838;2023-04-05T14:30:30;100212.19;;;15.87;40.08
68456;BME280;55437;55.046;38.838;2023-04-05T14:32:59;100217.22;;;15.90;40.06
68456;BME280;55437;55.046;38.838;2023-04-05T14:36:14;100220.88;;;15.86;40.41
68456;BME280;55437;55.046;38.838;2023-04-05T14:39:05;100215.22;;;15.78;40.47
68456;BME280;55437;55.046;38.838;2023-04-05T14:41:32;100218.09;;;15.72;40.70
68456;BME280;55437;55.046;38.838;2023-04-05T14:43:58;100221.88;;;15.65;40.50
68456;BME280;55437;55.046;38.838;2023-04-05T14:46:27;100228.16;;;15.59;40.60
68456;BME280;55437;55.046;38.838;2023-04-05T14:49:19;100222.34;;;15.54;40.41
68456;BME280;55437;55.046;38.838;2023-04-05T14:55:03;100223.41;;;15.50;40.84
68456;BME280;55437;55.046;38.838;2023-04-05T14:57:29;100222.50;;;15.51;41.09
68456;BME280;55437;55.046;38.838;2023-04-05T14:59:55;100222.00;;;15.43;41.51
68456;BME280;55437;55.046;38.838;2023-04-05T15:02:21;100223.97;;;15.38;41.67
68456;BME280;55437;55.046;38.838;2023-04-05T15:04:47;100219.75;;;15.35;41.74
68456;BME280;55437;55.046;38.838;2023-04-05T15:07:13;100229.56;;;15.29;42.02
68456;BME280;55437;55.046;38.838;2023-04-05T15:09:39;100228.22;;;15.20;42.08
68456;BME280;55437;55.046;38.838;2023-04-05T15:12:06;100228.47;;;15.14;42.39
68456;BME280;55437;55.046;38.838;2023-04-05T15:14:35;100236.44;;;15.09;42.54
68456;BME280;55437;55.046;38.838;2023-04-05T15:17:02;100247.13;;;15.02;42.47
68456;BME280;55437;55.046;38.838;2023-04-05T15:19:28;100232.63;;;14.98;42.67
68456;BME280;55437;55.046;38.838;2023-04-05T15:21:55;100243.06;;;14.96;42.92
68456;BME280;55437;55.046;38.838;2023-04-05T15:24:21;100245.84;;;14.92;42.95
68456;BME280;55437;55.046;38.838;2023-04-05T15:26:46;100243.59;;;14.84;43.08
68456;BME280;55437;55.046;38.838;2023-04-05T15:29:12;100250.72;;;14.79;43.16
68456;BME280;55437;55.046;38.838;2023-04-05T15:31:39;100265.88;;;14.66;43.26
68456;BME280;55437;55.046;38.838;2023-04-05T15:34:06;100246.97;;;14.66;43.45
68456;BME280;55437;55.046;38.838;2023-04-05T15:36:35;100259.25;;;14.61;43.58
68456;BME280;55437;55.046;38.838;2023-04-05T15:39:02;100261.13;;;14.57;43.63
68456;BME280;55437;55.046;38.838;2023-04-05T15:41:32;100264.72;;;14.53;43.68
68456;BME280;55437;55.046;38.838;2023-04-05T15:43:59;100260.00;;;14.43;43.94
68456;BME280;55437;55.046;38.838;2023-04-05T15:46:27;100273.03;;;14.39;44.07
68456;BME280;55437;55.046;38.838;2023-04-05T15:48:59;100276.84;;;14.29;44.19
68456;BME280;55437;55.046;38.838;2023-04-05T15:51:26;100275.56;;;14.19;44.43
68456;BME280;55437;55.046;38.838;2023-04-05T15:53:53;100287.69;;;14.17;44.87
68456;BME280;55437;55.046;38.838;2023-04-05T15:56:21;100279.19;;;14.14;44.62
68456;BME280;55437;55.046;38.838;2023-04-05T15:58:50;100283.78;;;14.07;44.65
68456;BME280;55437;55.046;38.838;2023-04-05T16:01:22;100291.69;;;14.02;44.70
68456;BME280;55437;55.046;38.838;2023-04-05T16:03:48;100288.25;;;14.02;44.92
68456;BME280;55437;55.046;38.838;2023-04-05T16:06:15;100295.38;;;13.97;45.10
68456;BME280;55437;55.046;38.838;2023-04-05T16:08:41;100292.34;;;13.86;45.14
68456;BME280;55437;55.046;38.838;2023-04-05T16:11:08;100296.94;;;13.78;45.42
68456;BME280;55437;55.046;38.838;2023-04-05T16:13:36;100297.94;;;13.75;45.61
68456;BME280;55437;55.046;38.838;2023-04-05T16:16:03;100310.09;;;13.72;45.84
68456;BME280;55437;55.046;38.838;2023-04-05T16:18:32;100311.03;;;13.69;45.88
68456;BME280;55437;55.046;38.838;2023-04-05T16:20:59;100314.88;;;13.59;46.10
68456;BME280;55437;55.046;38.838;2023-04-05T16:23:28;100312.44;;;13.54;46.08
68456;BME280;55437;55.046;38.838;2023-04-05T16:25:55;100315.25;;;13.48;46.23
68456;BME280;55437;55.046;38.838;2023-04-05T16:28:51;100321.38;;;13.46;46.39
68456;BME280;55437;55.046;38.838;2023-04-05T16:31:18;100324.91;;;13.43;46.51
68456;BME280;55437;55.046;38.838;2023-04-05T16:33:44;100323.44;;;13.36;46.43
68456;BME280;55437;55.046;38.838;2023-04-05T16:36:14;100332.97;;;13.34;46.26
68456;BME280;55437;55.046;38.838;2023-04-05T16:38:42;100332.28;;;13.29;46.53
68456;BME280;55437;55.046;38.838;2023-04-05T16:41:08;100335.03;;;13.24;46.71
68456;BME280;55437;55.046;38.838;2023-04-05T16:43:34;100341.09;;;13.23;46.71
68456;BME280;55437;55.046;38.838;2023-04-05T16:46:00;100340.44;;;13.17;46.96
68456;BME280;55437;55.046;38.838;2023-04-05T16:48:27;100343.22;;;13.11;47.02
68456;BME280;55437;55.046;38.838;2023-04-05T16:50:55;100347.56;;;13.09;47.30